sensor_id;sensor_type;location;lat;lon;timestamp;pressure;altitude;pressure_sealevel;temperature
12061;BMP180;6091;51.432;6.880;2022-09-02T00:02:00;101003.00;;;29.50
12061;BMP180;6091;51.432;6.880;2022-09-02T00:04:29;101005.00;;;29.50
12061;BMP180;6091;51.432;6.880;2022-09-02T00:06:57;101000.00;;;29.50
12061;BMP180;6091;51.432;6.880;2022-09-02T07:52:39;100900.00;;;29.40
12061;BMP180;6091;51.432;6.880;2022-09-02T07:55:38;100893.00;;;29.50
12061;BMP180;6091;51.432;6.880;2022-09-02T07:58:08;100890.00;;;29.50
12061;BMP180;6091;51.432;6.880;2022-09-02T08:00:37;100894.00;;;29.60
12061;BMP180;6091;51.432;6.880;2022-09-02T08:03:05;100887.00;;;29.60
12061;BMP180;6091;51.432;6.880;2022-09-02T08:05:38;100885.00;;;29.70
12061;BMP180;6091;51.432;6.880;2022-09-02T08:08:07;100889.00;;;29.70
12061;BMP180;6091;51.432;6.880;2022-09-02T08:13:09;100881.00;;;29.80
12061;BMP180;6091;51.432;6.880;2022-09-02T08:15:37;100878.00;;;29.80
12061;BMP180;6091;51.432;6.880;2022-09-02T08:18:07;100890.00;;;29.80
12061;BMP180;6091;51.432;6.880;2022-09-02T08:20:44;100889.00;;;29.80
12061;BMP180;6091;51.432;6.880;2022-09-02T08:23:11;100886.00;;;29.80
12061;BMP180;6091;51.432;6.880;2022-09-02T08:26:00;100883.00;;;29.90
12061;BMP180;6091;51.432;6.880;2022-09-02T08:28:29;100889.00;;;29.90
12061;BMP180;6091;51.432;6.880;2022-09-02T08:31:05;100888.00;;;29.90
12061;BMP180;6091;51.432;6.880;2022-09-02T08:33:33;100888.00;;;29.90
12061;BMP180;6091;51.432;6.880;2022-09-02T08:36:06;100889.00;;;29.90
12061;BMP180;6091;51.432;6.880;2022-09-02T08:38:35;100884.00;;;29.90
12061;BMP180;6091;51.432;6.880;2022-09-02T08:41:26;100874.00;;;29.90
12061;BMP180;6091;51.432;6.880;2022-09-02T08:43:59;100881.00;;;30.00
12061;BMP180;6091;51.432;6.880;2022-09-02T08:46:31;100875.00;;;30.00
12061;BMP180;6091;51.432;6.880;2022-09-02T08:49:05;100869.00;;;30.00
12061;BMP180;6091;51.432;6.880;2022-09-02T08:51:44;100875.00;;;30.00
12061;BMP180;6091;51.432;6.880;2022-09-02T08:54:41;100873.00;;;30.00
12061;BMP180;6091;51.432;6.880;2022-09-02T08:57:10;100867.00;;;30.00
12061;BMP180;6091;51.432;6.880;2022-09-02T08:59:39;100863.00;;;30.10
12061;BMP180;6091;51.432;6.880;2022-09-02T09:05:40;100858.00;;;30.10
12061;BMP180;6091;51.432;6.880;2022-09-02T09:11:15;100847.00;;;30.10
12061;BMP180;6091;51.432;6.880;2022-09-02T09:13:58;100848.00;;;30.20
12061;BMP180;6091;51.432;6.880;2022-09-02T09:17:03;100852.00;;;30.10
12061;BMP180;6091;51.432;6.880;2022-09-02T09:19:48;100854.00;;;30.10
12061;BMP180;6091;51.432;6.880;2022-09-02T09:22:23;100847.00;;;30.10
12061;BMP180;6091;51.432;6.880;2022-09-02T09:24:52;100844.00;;;30.10
12061;BMP180;6091;51.432;6.880;2022-09-02T09:27:21;100839.00;;;30.10
12061;BMP180;6091;51.432;6.880;2022-09-02T09:29:50;100838.00;;;30.10
12061;BMP180;6091;51.432;6.880;2022-09-02T09:32:43;100828.00;;;30.10
12061;BMP180;6091;51.432;6.880;2022-09-02T09:35:16;100803.00;;;30.10
12061;BMP180;6091;51.432;6.880;2022-09-02T09:37:52;100822.00;;;30.20
12061;BMP180;6091;51.432;6.880;2022-09-02T09:43:12;100823.00;;;30.10
12061;BMP180;6091;51.432;6.880;2022-09-02T09:45:43;100815.00;;;30.10
12061;BMP180;6091;51.432;6.880;2022-09-02T09:48:26;100811.00;;;30.10
12061;BMP180;6091;51.432;6.880;2022-09-02T09:53:29;100813.00;;;30.20
12061;BMP180;6091;51.432;6.880;2022-09-02T09:56:05;100810.00;;;30.20
12061;BMP180;6091;51.432;6.880;2022-09-02T10:01:33;100814.00;;;30.30
12061;BMP180;6091;51.432;6.880;2022-09-02T10:04:28;100805.00;;;30.30
12061;BMP180;6091;51.432;6.880;2022-09-02T10:07:11;100807.00;;;30.30
12061;BMP180;6091;51.432;6.880;2022-09-02T10:09:39;100802.00;;;30.40
12061;BMP180;6091;51.432;6.880;2022-09-02T10:12:11;100801.00;;;30.40
12061;BMP180;6091;51.432;6.880;2022-09-02T10:14:47;100803.00;;;30.50
12061;BMP180;6091;51.432;6.880;2022-09-02T10:32:23;100789.00;;;30.40
12061;BMP180;6091;51.432;6.880;2022-09-02T10:40:43;100784.00;;;30.50
12061;BMP180;6091;51.432;6.880;2022-09-02T10:46:19;100784.00;;;30.50
12061;BMP180;6091;51.432;6.880;2022-09-02T10:58:02;100779.00;;;30.60
12061;BMP180;6091;51.432;6.880;2022-09-02T11:00:34;100776.00;;;30.60
12061;BMP180;6091;51.432;6.880;2022-09-02T11:03:32;100773.00;;;30.60
12061;BMP180;6091;51.432;6.880;2022-09-02T11:06:19;100777.00;;;30.50
12061;BMP180;6091;51.432;6.880;2022-09-02T11:09:08;100780.00;;;30.50
12061;BMP180;6091;51.432;6.880;2022-09-02T11:11:55;100774.00;;;30.50
12061;BMP180;6091;51.432;6.880;2022-09-02T11:14:51;100768.00;;;30.50
12061;BMP180;6091;51.432;6.880;2022-09-02T11:20:25;100765.00;;;30.60
12061;BMP180;6091;51.432;6.880;2022-09-02T11:23:40;100763.00;;;30.60
12061;BMP180;6091;51.432;6.880;2022-09-02T11:27:11;100753.00;;;30.70
12061;BMP180;6091;51.432;6.880;2022-09-02T11:29:52;100758.00;;;30.70
12061;BMP180;6091;51.432;6.880;2022-09-02T11:32:34;100751.00;;;30.80
12061;BMP180;6091;51.432;6.880;2022-09-02T11:35:08;100755.00;;;30.90
12061;BMP180;6091;51.432;6.880;2022-09-02T11:41:22;100746.00;;;31.00
12061;BMP180;6091;51.432;6.880;2022-09-02T11:47:26;100753.00;;;31.40
12061;BMP180;6091;51.432;6.880;2022-09-02T11:56:12;100735.00;;;31.60
12061;BMP180;6091;51.432;6.880;2022-09-02T11:58:44;100737.00;;;31.60
12061;BMP180;6091;51.432;6.880;2022-09-02T12:01:22;100734.00;;;31.60
12061;BMP180;6091;51.432;6.880;2022-09-02T12:04:16;100730.00;;;31.60
12061;BMP180;6091;51.432;6.880;2022-09-02T12:09:53;100729.00;;;31.60
12061;BMP180;6091;51.432;6.880;2022-09-02T12:18:32;100717.00;;;31.80
12061;BMP180;6091;51.432;6.880;2022-09-02T12:24:00;100718.00;;;32.40
12061;BMP180;6091;51.432;6.880;2022-09-02T12:26:07;100717.00;;;32.60
12061;BMP180;6091;51.432;6.880;2022-09-02T12:28:42;100724.00;;;32.70
12061;BMP180;6091;51.432;6.880;2022-09-02T12:31:42;100718.00;;;32.90
12061;BMP180;6091;51.432;6.880;2022-09-02T12:37:01;100717.00;;;33.20
12061;BMP180;6091;51.432;6.880;2022-09-02T12:42:24;100711.00;;;33.30
12061;BMP180;6091;51.432;6.880;2022-09-02T12:45:22;100708.00;;;33.20
12061;BMP180;6091;51.432;6.880;2022-09-02T12:48:16;100705.00;;;33.10
12061;BMP180;6091;51.432;6.880;2022-09-02T12:50:58;100707.00;;;33.00
12061;BMP180;6091;51.432;6.880;2022-09-02T12:53:45;100699.00;;;33.10
12061;BMP180;6091;51.432;6.880;2022-09-02T12:58:56;100691.00;;;33.50
12061;BMP180;6091;51.432;6.880;2022-09-02T13:01:53;100692.00;;;33.80
12061;BMP180;6091;51.432;6.880;2022-09-02T13:04:56;100692.00;;;34.10
12061;BMP180;6091;51.432;6.880;2022-09-02T13:10:55;100686.00;;;34.50
12061;BMP180;6091;51.432;6.880;2022-09-02T13:19:57;100679.00;;;34.80
12061;BMP180;6091;51.432;6.880;2022-09-02T13:31:31;100677.00;;;34.30
12061;BMP180;6091;51.432;6.880;2022-09-02T13:34:04;100689.00;;;34.10
12061;BMP180;6091;51.432;6.880;2022-09-02T13:36:40;100673.00;;;34.00
12061;BMP180;6091;51.432;6.880;2022-09-02T13:39:19;100666.00;;;33.80
12061;BMP180;6091;51.432;6.880;2022-09-02T13:41:49;100659.00;;;33.70
12061;BMP180;6091;51.432;6.880;2022-09-02T13:44:27;100667.00;;;33.60
12061;BMP180;6091;51.432;6.880;2022-09-02T13:47:11;100657.00;;;33.50
12061;BMP180;6091;51.432;6.880;2022-09-02T13:49:46;100655.00;;;33.40
12061;BMP180;6091;51.432;6.880;2022-09-02T13:52:24;100645.00;;;33.30
12061;BMP180;6091;51.432;6.880;2022-09-02T13:55:14;100647.00;;;33.20
12061;BMP180;6091;51.432;6.880;2022-09-02T13:57:59;100644.00;;;33.10
12061;BMP180;6091;51.432;6.880;2022-09-02T14:00:39;100638.00;;;33.00
12061;BMP180;6091;51.432;6.880;2022-09-02T14:03:12;100649.00;;;32.90
12061;BMP180;6091;51.432;6.880;2022-09-02T14:05:45;100644.00;;;32.80
12061;BMP180;6091;51.432;6.880;2022-09-02T14:08:19;100642.00;;;32.70
12061;BMP180;6091;51.432;6.880;2022-09-02T14:10:48;100638.00;;;32.70
12061;BMP180;6091;51.432;6.880;2022-09-02T14:13:21;100632.00;;;32.60
12061;BMP180;6091;51.432;6.880;2022-09-02T14:15:48;100631.00;;;32.50
12061;BMP180;6091;51.432;6.880;2022-09-02T14:18:21;100632.00;;;32.50
12061;BMP180;6091;51.432;6.880;2022-09-02T14:21:00;100629.00;;;32.40
12061;BMP180;6091;51.432;6.880;2022-09-02T14:23:31;100624.00;;;32.40
12061;BMP180;6091;51.432;6.880;2022-09-02T14:26:03;100626.00;;;32.30
12061;BMP180;6091;51.432;6.880;2022-09-02T14:28:33;100622.00;;;32.30
12061;BMP180;6091;51.432;6.880;2022-09-02T14:31:05;100616.00;;;32.30
12061;BMP180;6091;51.432;6.880;2022-09-02T14:33:44;100615.00;;;32.30
12061;BMP180;6091;51.432;6.880;2022-09-02T14:49:34;100594.00;;;32.10
12061;BMP180;6091;51.432;6.880;2022-09-02T14:52:18;100594.00;;;32.10
12061;BMP180;6091;51.432;6.880;2022-09-02T14:54:51;100592.00;;;32.10
12061;BMP180;6091;51.432;6.880;2022-09-02T14:57:28;100587.00;;;32.00
12061;BMP180;6091;51.432;6.880;2022-09-02T15:00:09;100583.00;;;32.00
12061;BMP180;6091;51.432;6.880;2022-09-02T15:02:43;100577.00;;;32.00
12061;BMP180;6091;51.432;6.880;2022-09-02T15:05:13;100586.00;;;32.00
12061;BMP180;6091;51.432;6.880;2022-09-02T15:07:41;100572.00;;;32.00
12061;BMP180;6091;51.432;6.880;2022-09-02T15:10:08;100573.00;;;32.00
12061;BMP180;6091;51.432;6.880;2022-09-02T15:12:53;100567.00;;;32.00
12061;BMP180;6091;51.432;6.880;2022-09-02T15:15:20;100563.00;;;32.00
12061;BMP180;6091;51.432;6.880;2022-09-02T15:17:47;100568.00;;;32.00
12061;BMP180;6091;51.432;6.880;2022-09-02T15:20:14;100564.00;;;32.10
12061;BMP180;6091;51.432;6.880;2022-09-02T15:22:42;100557.00;;;32.10
12061;BMP180;6091;51.432;6.880;2022-09-02T15:25:09;100568.00;;;32.10
12061;BMP180;6091;51.432;6.880;2022-09-02T15:27:36;100568.00;;;32.10
12061;BMP180;6091;51.432;6.880;2022-09-02T15:30:05;100562.00;;;32.10
12061;BMP180;6091;51.432;6.880;2022-09-02T15:32:36;100564.00;;;32.10
12061;BMP180;6091;51.432;6.880;2022-09-02T15:35:05;100554.00;;;32.10
12061;BMP180;6091;51.432;6.880;2022-09-02T15:37:33;100563.00;;;32.10
12061;BMP180;6091;51.432;6.880;2022-09-02T15:40:06;100562.00;;;32.20
12061;BMP180;6091;51.432;6.880;2022-09-02T15:42:37;100559.00;;;32.20
12061;BMP180;6091;51.432;6.880;2022-09-02T15:45:06;100565.00;;;32.20
12061;BMP180;6091;51.432;6.880;2022-09-02T15:47:37;100553.00;;;32.20
12061;BMP180;6091;51.432;6.880;2022-09-02T15:50:07;100542.00;;;32.20
12061;BMP180;6091;51.432;6.880;2022-09-02T15:52:35;100553.00;;;32.20
12061;BMP180;6091;51.432;6.880;2022-09-02T15:55:03;100542.00;;;32.10
12061;BMP180;6091;51.432;6.880;2022-09-02T15:57:30;100539.00;;;32.10
12061;BMP180;6091;51.432;6.880;2022-09-02T15:59:57;100545.00;;;32.00
12061;BMP180;6091;51.432;6.880;2022-09-02T16:02:24;100540.00;;;32.00
12061;BMP180;6091;51.432;6.880;2022-09-02T16:04:54;100540.00;;;32.00
12061;BMP180;6091;51.432;6.880;2022-09-02T16:07:22;100538.00;;;31.90
12061;BMP180;6091;51.432;6.880;2022-09-02T16:09:49;100534.00;;;31.90
12061;BMP180;6091;51.432;6.880;2022-09-02T16:12:16;100538.00;;;31.80
12061;BMP180;6091;51.432;6.880;2022-09-02T16:14:43;100532.00;;;31.80
12061;BMP180;6091;51.432;6.880;2022-09-02T16:17:14;100536.00;;;31.80
12061;BMP180;6091;51.432;6.880;2022-09-02T16:19:47;100519.00;;;31.70
12061;BMP180;6091;51.432;6.880;2022-09-02T16:22:14;100525.00;;;31.70
12061;BMP180;6091;51.432;6.880;2022-09-02T16:24:41;100511.00;;;31.70
12061;BMP180;6091;51.432;6.880;2022-09-02T16:27:08;100519.00;;;31.60
12061;BMP180;6091;51.432;6.880;2022-09-02T16:29:35;100523.00;;;31.60
12061;BMP180;6091;51.432;6.880;2022-09-02T16:32:03;100520.00;;;31.50
12061;BMP180;6091;51.432;6.880;2022-09-02T16:34:51;100521.00;;;31.40
12061;BMP180;6091;51.432;6.880;2022-09-02T16:37:21;100515.00;;;31.40
12061;BMP180;6091;51.432;6.880;2022-09-02T16:39:48;100512.00;;;31.40
12061;BMP180;6091;51.432;6.880;2022-09-02T16:42:15;100517.00;;;31.40
12061;BMP180;6091;51.432;6.880;2022-09-02T16:44:42;100519.00;;;31.30
12061;BMP180;6091;51.432;6.880;2022-09-02T16:47:10;100507.00;;;31.30
12061;BMP180;6091;51.432;6.880;2022-09-02T16:49:42;100507.00;;;31.30
12061;BMP180;6091;51.432;6.880;2022-09-02T16:52:12;100513.00;;;31.30
12061;BMP180;6091;51.432;6.880;2022-09-02T16:54:39;100514.00;;;31.30
12061;BMP180;6091;51.432;6.880;2022-09-02T16:57:07;100512.00;;;31.30
12061;BMP180;6091;51.432;6.880;2022-09-02T16:59:34;100517.00;;;31.20
12061;BMP180;6091;51.432;6.880;2022-09-02T17:02:01;100506.00;;;31.20
12061;BMP180;6091;51.432;6.880;2022-09-02T17:04:29;100513.00;;;31.20
12061;BMP180;6091;51.432;6.880;2022-09-02T17:06:56;100505.00;;;31.10
12061;BMP180;6091;51.432;6.880;2022-09-02T17:09:23;100504.00;;;31.10
12061;BMP180;6091;51.432;6.880;2022-09-02T17:11:51;100500.00;;;31.10
12061;BMP180;6091;51.432;6.880;2022-09-02T17:14:20;100499.00;;;31.10
12061;BMP180;6091;51.432;6.880;2022-09-02T17:16:49;100504.00;;;31.10
12061;BMP180;6091;51.432;6.880;2022-09-02T17:19:19;100501.00;;;31.10
12061;BMP180;6091;51.432;6.880;2022-09-02T17:21:54;100504.00;;;31.10
12061;BMP180;6091;51.432;6.880;2022-09-02T17:24:24;100503.00;;;31.10
12061;BMP180;6091;51.432;6.880;2022-09-02T17:26:53;100503.00;;;31.00
12061;BMP180;6091;51.432;6.880;2022-09-02T17:29:24;100504.00;;;31.00
12061;BMP180;6091;51.432;6.880;2022-09-02T17:32:15;100505.00;;;31.00
12061;BMP180;6091;51.432;6.880;2022-09-02T17:34:43;100507.00;;;31.00
12061;BMP180;6091;51.432;6.880;2022-09-02T17:37:10;100507.00;;;31.00
12061;BMP180;6091;51.432;6.880;2022-09-02T17:39:40;100513.00;;;31.00
12061;BMP180;6091;51.432;6.880;2022-09-02T17:42:08;100512.00;;;31.00
12061;BMP180;6091;51.432;6.880;2022-09-02T17:44:38;100511.00;;;31.00
12061;BMP180;6091;51.432;6.880;2022-09-02T17:47:17;100515.00;;;31.00
12061;BMP180;6091;51.432;6.880;2022-09-02T17:49:46;100513.00;;;31.00
12061;BMP180;6091;51.432;6.880;2022-09-02T17:52:20;100510.00;;;30.90
12061;BMP180;6091;51.432;6.880;2022-09-02T17:54:56;100512.00;;;31.00
12061;BMP180;6091;51.432;6.880;2022-09-02T17:57:37;100510.00;;;30.90
12061;BMP180;6091;51.432;6.880;2022-09-02T18:00:18;100505.00;;;30.90
12061;BMP180;6091;51.432;6.880;2022-09-02T18:03:08;100519.00;;;30.90
12061;BMP180;6091;51.432;6.880;2022-09-02T18:05:53;100508.00;;;30.80
12061;BMP180;6091;51.432;6.880;2022-09-02T18:08:56;100512.00;;;30.80
12061;BMP180;6091;51.432;6.880;2022-09-02T18:11:24;100500.00;;;30.80
12061;BMP180;6091;51.432;6.880;2022-09-02T18:17:51;100499.00;;;30.70
12061;BMP180;6091;51.432;6.880;2022-09-02T18:23:27;100495.00;;;30.70
12061;BMP180;6091;51.432;6.880;2022-09-02T18:35:01;100492.00;;;30.60
12061;BMP180;6091;51.432;6.880;2022-09-02T18:41:04;100506.00;;;30.60
12061;BMP180;6091;51.432;6.880;2022-09-02T18:46:53;100505.00;;;30.60
12061;BMP180;6091;51.432;6.880;2022-09-02T18:49:24;100506.00;;;30.60
12061;BMP180;6091;51.432;6.880;2022-09-02T18:51:57;100499.00;;;30.60
12061;BMP180;6091;51.432;6.880;2022-09-02T18:54:44;100523.00;;;30.60
12061;BMP180;6091;51.432;6.880;2022-09-02T18:57:12;100511.00;;;30.60
12061;BMP180;6091;51.432;6.880;2022-09-02T19:00:05;100514.00;;;30.50
12061;BMP180;6091;51.432;6.880;2022-09-02T19:02:50;100515.00;;;30.50
12061;BMP180;6091;51.432;6.880;2022-09-02T19:05:24;100517.00;;;30.50
12061;BMP180;6091;51.432;6.880;2022-09-02T19:11:06;100525.00;;;30.50
12061;BMP180;6091;51.432;6.880;2022-09-02T19:13:59;100530.00;;;30.50
12061;BMP180;6091;51.432;6.880;2022-09-02T19:16:33;100530.00;;;30.50
12061;BMP180;6091;51.432;6.880;2022-09-02T19:19:01;100525.00;;;30.50
12061;BMP180;6091;51.432;6.880;2022-09-02T19:24:07;100532.00;;;30.50
12061;BMP180;6091;51.432;6.880;2022-09-02T19:26:38;100526.00;;;30.50
12061;BMP180;6091;51.432;6.880;2022-09-02T19:29:10;100524.00;;;30.50
12061;BMP180;6091;51.432;6.880;2022-09-02T19:31:40;100523.00;;;30.50
12061;BMP180;6091;51.432;6.880;2022-09-02T19:34:09;100531.00;;;30.50
12061;BMP180;6091;51.432;6.880;2022-09-02T19:36:40;100530.00;;;30.50
12061;BMP180;6091;51.432;6.880;2022-09-02T19:39:08;100524.00;;;30.50
12061;BMP180;6091;51.432;6.880;2022-09-02T19:41:35;100531.00;;;30.50
12061;BMP180;6091;51.432;6.880;2022-09-02T19:44:02;100528.00;;;30.50
12061;BMP180;6091;51.432;6.880;2022-09-02T19:46:29;100531.00;;;30.40
12061;BMP180;6091;51.432;6.880;2022-09-02T19:49:16;100532.00;;;30.40
12061;BMP180;6091;51.432;6.880;2022-09-02T19:51:44;100539.00;;;30.40
12061;BMP180;6091;51.432;6.880;2022-09-02T19:54:13;100528.00;;;30.40
12061;BMP180;6091;51.432;6.880;2022-09-02T19:56:41;100527.00;;;30.40
12061;BMP180;6091;51.432;6.880;2022-09-02T19:59:08;100522.00;;;30.40
12061;BMP180;6091;51.432;6.880;2022-09-02T20:01:37;100526.00;;;30.40
12061;BMP180;6091;51.432;6.880;2022-09-02T20:04:04;100523.00;;;30.40
12061;BMP180;6091;51.432;6.880;2022-09-02T20:06:32;100526.00;;;30.40
12061;BMP180;6091;51.432;6.880;2022-09-02T20:08:59;100524.00;;;30.40
12061;BMP180;6091;51.432;6.880;2022-09-02T20:11:26;100529.00;;;30.40
12061;BMP180;6091;51.432;6.880;2022-09-02T20:13:53;100523.00;;;30.40
12061;BMP180;6091;51.432;6.880;2022-09-02T20:16:25;100522.00;;;30.40
12061;BMP180;6091;51.432;6.880;2022-09-02T20:18:55;100522.00;;;30.40
12061;BMP180;6091;51.432;6.880;2022-09-02T20:21:42;100531.00;;;30.30
12061;BMP180;6091;51.432;6.880;2022-09-02T20:24:14;100531.00;;;30.30
12061;BMP180;6091;51.432;6.880;2022-09-02T20:29:56;100525.00;;;30.30
12061;BMP180;6091;51.432;6.880;2022-09-02T20:35:44;100524.00;;;30.20
12061;BMP180;6091;51.432;6.880;2022-09-02T20:38:35;100521.00;;;30.20
12061;BMP180;6091;51.432;6.880;2022-09-02T20:50:34;100502.00;;;30.20
12061;BMP180;6091;51.432;6.880;2022-09-02T20:56:04;100503.00;;;30.20
12061;BMP180;6091;51.432;6.880;2022-09-02T21:01:43;100507.00;;;30.10
12061;BMP180;6091;51.432;6.880;2022-09-02T21:06:57;100503.00;;;30.10
12061;BMP180;6091;51.432;6.880;2022-09-02T21:12:25;100500.00;;;30.10
12061;BMP180;6091;51.432;6.880;2022-09-02T21:18:32;100496.00;;;30.10
12061;BMP180;6091;51.432;6.880;2022-09-02T21:24:33;100499.00;;;30.00
12061;BMP180;6091;51.432;6.880;2022-09-02T21:27:44;100504.00;;;30.00
12061;BMP180;6091;51.432;6.880;2022-09-02T21:30:17;100502.00;;;30.00
12061;BMP180;6091;51.432;6.880;2022-09-02T21:32:50;100500.00;;;30.00
12061;BMP180;6091;51.432;6.880;2022-09-02T21:35:46;100500.00;;;30.00
12061;BMP180;6091;51.432;6.880;2022-09-02T21:44:10;100498.00;;;29.80
12061;BMP180;6091;51.432;6.880;2022-09-02T21:51:00;100497.00;;;29.90
12061;BMP180;6091;51.432;6.880;2022-09-02T22:00:00;100498.00;;;29.90
12061;BMP180;6091;51.432;6.880;2022-09-02T22:02:30;100496.00;;;29.80
12061;BMP180;6091;51.432;6.880;2022-09-02T22:08:28;100495.00;;;29.80
12061;BMP180;6091;51.432;6.880;2022-09-02T22:13:39;100488.00;;;29.80
12061;BMP180;6091;51.432;6.880;2022-09-02T22:16:48;100493.00;;;29.80
12061;BMP180;6091;51.432;6.880;2022-09-02T22:19:19;100482.00;;;29.80
12061;BMP180;6091;51.432;6.880;2022-09-02T22:21:57;100490.00;;;29.80
12061;BMP180;6091;51.432;6.880;2022-09-02T22:24:28;100481.00;;;29.80
12061;BMP180;6091;51.432;6.880;2022-09-02T22:27:00;100483.00;;;29.80
12061;BMP180;6091;51.432;6.880;2022-09-02T22:29:49;100479.00;;;29.80
12061;BMP180;6091;51.432;6.880;2022-09-02T22:32:27;100478.00;;;29.80
12061;BMP180;6091;51.432;6.880;2022-09-02T22:38:45;100484.00;;;29.70
12061;BMP180;6091;51.432;6.880;2022-09-02T22:47:21;100477.00;;;29.70
12061;BMP180;6091;51.432;6.880;2022-09-02T22:50:17;100479.00;;;29.70
12061;BMP180;6091;51.432;6.880;2022-09-02T22:53:04;100477.00;;;29.70
12061;BMP180;6091;51.432;6.880;2022-09-02T22:55:59;100481.00;;;29.70
12061;BMP180;6091;51.432;6.880;2022-09-02T22:59:10;100475.00;;;29.70
12061;BMP180;6091;51.432;6.880;2022-09-02T23:07:23;100476.00;;;29.70
12061;BMP180;6091;51.432;6.880;2022-09-02T23:09:51;100475.00;;;29.70
12061;BMP180;6091;51.432;6.880;2022-09-02T23:12:42;100476.00;;;29.70
12061;BMP180;6091;51.432;6.880;2022-09-02T23:15:42;100476.00;;;29.70
12061;BMP180;6091;51.432;6.880;2022-09-02T23:18:19;100476.00;;;29.70
12061;BMP180;6091;51.432;6.880;2022-09-02T23:24:33;100473.00;;;29.70
12061;BMP180;6091;51.432;6.880;2022-09-02T23:29:56;100476.00;;;29.70
12061;BMP180;6091;51.432;6.880;2022-09-02T23:35:28;100465.00;;;29.70
12061;BMP180;6091;51.432;6.880;2022-09-02T23:41:08;100465.00;;;29.70
12061;BMP180;6091;51.432;6.880;2022-09-02T23:43:37;100464.00;;;29.70
12061;BMP180;6091;51.432;6.880;2022-09-02T23:50:22;100458.00;;;29.60
12061;BMP180;6091;51.432;6.880;2022-09-02T23:53:03;100454.00;;;29.70
